World of Logs combat log analyzer allows gamers to save, share and analyze their raiding experiences conveniently and thoroughly in the Blizzard MMO World of Warcraft. If you're new here, make sure you check out the tour for a 1 minute introduction. If you have any questions, we're happy to answer them on the forums.

DPS HPS
Odyn
Helya
Guarm
Reports for Paragons of the Klaxxi - statistics
# Date Time Damage DPS Guild Realm
1 30 Aug 2014 06:26 1764.21M 4559862.8 Timeless EU-Illidan
2 09 Sep 2014 06:56 1782.95M 4280668.5 Kolikolla Kultaa EU-Doomhammer
3 13 Sep 2014 07:03 1834.34M 4333633.2 Timeless EU-Illidan
4 17 Sep 2014 07:08 1822.88M 4254626.5 Memento EU-Frostwhisper
5 20 Sep 2014 07:21 1686.96M 3818299.2 Рак Гейминг EU-Свежеватель Душ
6 22 Jun 2014 07:23 1862.01M 4194997.1 DarkStorm EU-Zenedar
7 17 Sep 2014 07:25 1808.20M 4056168.3 Entropy EU-Bronzebeard
8 17 Sep 2014 07:25 1808.20M 4056122.8 Entropy EU-Bronzebeard
9 04 Oct 2014 07:27 1751.76M 3915395.7 Timeless EU-Illidan
10 03 Oct 2014 07:27 1670.08M 3730782.5 Kimanshy Logs EU-Свежеватель Душ
11 03 Oct 2014 07:27 1670.08M 3730515.9 Чек и ГО EU-Ревущий фьорд
12 10 Sep 2014 07:30 1681.63M 3729120.6 Fate US-Sargeras
13 10 Sep 2014 07:31 1573.07M 3483452.8 Maccei's log EU-Arathor
14 02 Oct 2014 07:34 1780.98M 3917245.0 Eutopia EU-Suramar
15 10 Sep 2014 07:35 1826.38M 4013710.1 Memento EU-Frostwhisper
16 08 Oct 2014 07:35 1659.63M 3644199.0 Exploding Labrats EU-Stormreaver
17 12 Sep 2014 07:35 1614.27M 3543138.7 Бення EU-Ревущий фьорд
18 12 Sep 2014 07:35 1614.27M 3542679.9 Kimanshy Logs EU-Свежеватель Душ
19 29 Sep 2014 07:35 1795.21M 3938687.9 Entropy EU-Bronzebeard
20 29 Sep 2014 07:35 1795.21M 3938610.1 Entropy EU-Bronzebeard
21 29 Sep 2014 07:35 1795.21M 3938592.8 Entropy EU-Bronzebeard
22 02 Oct 2014 07:36 1579.76M 3462271.8 Синергетика EU-Ревущий фьорд
23 29 Sep 2014 07:36 1606.74M 3517553.3 Тесты Грустного EU-Гордунни
24 07 Sep 2014 07:37 1580.57M 3454415.3 untitled spreadsheet EU-Eredar
25 07 Oct 2014 07:37 1634.84M 3569995.9 Eagan US-Ghostlands
26 17 Sep 2014 07:39 1636.90M 3562798.6 Windshock EU-Arathor
27 07 Sep 2014 07:41 1758.12M 3812698.0 Посольство АК EU-Гордунни
28 03 Sep 2014 07:42 1747.69M 3780727.7 Entropy EU-Bronzebeard
29 10 Sep 2014 07:42 1599.92M 3460878.8 Eleven Degrees EU-Lothar
30 24 Sep 2014 07:43 1617.37M 3491652.9 A Necessary Evil EU-Hellfire
31 09 Oct 2014 07:43 1602.95M 3459012.5 Intuition EU-Boulderfist
32 28 Sep 2014 07:43 1629.35M 3513191.3 Such a Thing EU-Thrall
33 09 Sep 2014 07:44 1592.77M 3432704.3 The Coalition US-Lightbringer
34 19 Sep 2014 07:44 1670.11M 3598594.8 Haven US-Mal'Ganis
35 11 Oct 2014 07:47 1561.37M 3340299.9 Интервенция EU-Разувий
36 09 Oct 2014 07:48 1606.24M 3428384.8 Dunning Kruger EU-Frostwolf
37 15 Sep 2014 07:50 1589.55M 3380560.3 Phoenix EU-Burning Legion
38 23 Sep 2014 07:51 1610.61M 3414038.7 The Coalition US-Lightbringer
39 24 Sep 2014 07:52 1767.70M 3743067.7 Arise EU-Uldaman
40 11 Sep 2014 07:52 1549.26M 3279990.3 Энерджайзер EU-Страж Смерти
41 12 Oct 2014 07:52 1799.93M 3805687.1 nornes EU-Elune
42 02 Oct 2014 07:53 1586.19M 3347694.2 Смэкзет EU-Гордунни
43 21 Aug 2014 07:54 1851.03M 3901287.6 Entropy EU-Bronzebeard
44 30 Sep 2014 07:54 1698.69M 3577572.2 vaironhead ftw EU-Ревущий фьорд
45 29 Sep 2014 07:54 1558.82M 3282860.2 tapki EU-Гордунни
46 30 Sep 2014 07:54 1698.69M 3577157.9 Kimanshy Logs EU-Свежеватель Душ
47 10 Sep 2014 07:55 1755.06M 3689486.5 Malevolent EU-Blackmoore
48 02 Oct 2014 07:57 1526.49M 3198777.6 Mental Insanity EU-Kazzak
49 11 Sep 2014 07:57 1525.55M 3192024.6 Outrage US-Mal'Ganis
50 28 Sep 2014 07:58 1806.81M 3778207.4 untitled spreadsheet EU-Eredar
51 19 Sep 2014 07:58 1701.83M 3555592.1 Kimanshy Logs EU-Свежеватель Душ
52 19 Sep 2014 07:58 1701.83M 3555369.3 HadeAndKo EU-Подземье
53 09 Sep 2014 07:58 1882.47M 3931623.3 DEM unplugged EU-Draenor
54 11 Sep 2014 07:59 1526.07M 3181766.2 Marshmallow cupcakes US-Arthas
55 21 Sep 2014 07:59 1712.43M 3570032.7 Vanity EU-Mal'Ganis
56 21 Sep 2014 08:02 1559.02M 3234337.9 Labardan EU-Silvermoon
57 01 Oct 2014 08:02 1611.91M 3341463.5 Eleven Degrees EU-Lothar
58 08 Oct 2014 08:02 1576.01M 3262957.2 Lunar EU-Emerald Dream
59 08 Oct 2014 08:03 1576.01M 3262261.5 Lunar EU-Emerald Dream
60 06 Oct 2014 08:04 1554.93M 3211185.9 Dunning Kruger EU-Frostwolf
61 18 Sep 2014 08:04 1749.53M 3612737.5 La mancha ultravioleta EU-C'Thun
62 25 Sep 2014 08:04 1741.94M 3592460.9 Musml EU-Ревущий фьорд
63 09 Sep 2014 08:05 1674.75M 3451306.9 S & L EU-Kazzak
64 09 Sep 2014 08:05 1674.75M 3451086.5 Xinnara EU-Draenor
65 01 Oct 2014 08:05 1657.13M 3414652.1 Intuition EU-Ahn'Qiraj
66 20 Sep 2014 08:06 1596.01M 3281340.2 macht DRUCK EU-Mal'Ganis
67 01 Oct 2014 08:06 1686.27M 3466464.6 Solace US-Illidan
68 20 Sep 2014 08:06 1596.01M 3280814.1 Tempest EU-Azshara
69 07 Oct 2014 08:06 1611.31M 3312258.2 Titans Judgment US-Shadow Council
70 07 Sep 2014 08:07 1618.53M 3323414.2 Ad Rem EU-Rexxar
71 30 Sep 2014 08:07 1790.79M 3674182.1 Malevolent EU-Blackmoore
72 08 Oct 2014 08:08 1925.41M 3944363.7 Bleeding hatred EU-Twisting Nether
73 08 Oct 2014 08:09 1698.70M 3471444.3 Outrage US-Mal'Ganis
74 10 Sep 2014 08:09 1519.04M 3100674.4 Patch EU-Anetheron
75 02 Oct 2014 08:09 1533.14M 3129091.7 Ekirei EU-Drak'thul
76 24 Sep 2014 08:10 1628.58M 3322391.8 Intuition EU-Ahn'Qiraj
77 10 Oct 2014 08:10 1700.02M 3467341.7 Синергетика EU-Ревущий фьорд
78 12 Oct 2014 08:10 1730.57M 3529215.6 Entropy EU-Bronzebeard
79 10 Oct 2014 08:10 1700.02M 3465942.0 vaironhead ftw EU-Ревущий фьорд
80 10 Sep 2014 08:10 1671.66M 3406408.6 Squàd EU-Archimonde
81 10 Sep 2014 08:10 1671.66M 3406311.4 Shøu's log EU-Archimonde
82 22 Sep 2014 08:10 1643.99M 3349352.3 eXample EU-Ravencrest
83 01 Oct 2014 08:11 1774.83M 3613821.6 Malevolent EU-Blackmoore
84 10 Sep 2014 08:11 1665.12M 3387877.7 Coucous boulettes EU-Sargeras
85 10 Sep 2014 08:11 1617.92M 3290773.8 Non Combat Pet - Blasphemy US-Proudmoore
86 20 Sep 2014 08:12 1796.62M 3648189.3 Timeless EU-Illidan
87 20 Sep 2014 08:12 1796.62M 3647996.7 Timeless EU-Illidan
88 13 Sep 2014 08:12 1802.04M 3658516.9 Uniquê EU-Blackrock
89 09 Oct 2014 08:16 1570.03M 3162428.8 Magister Dixit EU-Twisting Nether
90 01 Oct 2014 08:16 1597.52M 3215111.7 Jumaji Industries EU-Ravencrest
91 07 Oct 2014 08:17 1622.86M 3264993.4 Team Dad US-Bleeding Hollow
92 13 Sep 2014 08:17 1654.92M 3326653.9 Рак Гейминг EU-Свежеватель Душ
93 30 Sep 2014 08:18 1789.02M 3591711.8 Entropy EU-Bronzebeard
94 30 Sep 2014 08:18 1789.02M 3591603.6 Entropy EU-Bronzebeard
95 14 Sep 2014 08:18 1539.78M 3089786.0 Lunar EU-Emerald Dream
96 11 Sep 2014 08:18 1591.26M 3192621.4 Bench Squad US-Turalyon
97 10 Sep 2014 08:19 1662.63M 3329098.2 Reviction US-Stormreaver
98 28 Sep 2014 08:19 1542.20M 3086125.2 Leopard with a Chainsaw EU-Blackrock
99 07 Sep 2014 08:19 1527.60M 3055484.3 Such a Thing EU-Thrall
100 02 Oct 2014 08:20 1624.39M 3248592.4 löckDöwn US-Ragnaros

Please do not close the page with the ad you want to report.

I've posted a guide on how to report misbehaving ads on the forum. Please follow the instructions and help make the internet a safer place. Thanks for you time.